createdAt,value
2023-05-12T00:00:03.949Z,237.21
2023-05-12T00:01:04.008Z,238.10
2023-05-12T00:02:04.026Z,241.26
2023-05-12T00:03:04.310Z,240.04
2023-05-12T00:04:04.313Z,238.53
2023-05-12T00:05:04.151Z,239.75
2023-05-12T00:06:04.226Z,239.52
2023-05-12T00:07:04.309Z,241.58
2023-05-12T00:08:04.302Z,241.23
2023-05-12T00:09:04.383Z,239.66
2023-05-12T00:10:04.492Z,235.81
2023-05-12T00:11:04.565Z,238.57
2023-05-12T00:12:04.551Z,241.47
2023-05-12T00:13:04.554Z,238.72
2023-05-12T00:14:04.685Z,238.94
2023-05-12T00:15:04.724Z,239.59
2023-05-12T00:16:04.760Z,240.02
2023-05-12T00:17:04.772Z,240.75
2023-05-12T00:18:04.917Z,240.46
2023-05-12T00:19:04.970Z,239.49
2023-05-12T00:20:04.884Z,239.59
2023-05-12T00:21:04.975Z,239.67
2023-05-12T00:22:05.025Z,240.64
2023-05-12T00:23:05.120Z,238.91
2023-05-12T00:24:05.150Z,241.52
2023-05-12T00:25:05.195Z,241.35
2023-05-12T00:26:05.201Z,239.25
2023-05-12T00:27:05.247Z,241.34
2023-05-12T00:28:05.352Z,240.92
2023-05-12T00:29:05.366Z,239.30
2023-05-12T00:30:05.383Z,240.99
2023-05-12T00:31:05.510Z,241.17
2023-05-12T00:32:05.527Z,239.82
2023-05-12T00:33:05.604Z,239.67
2023-05-12T00:34:05.616Z,240.98
2023-05-12T00:35:05.692Z,240.76
2023-05-12T00:36:05.713Z,240.83
2023-05-12T00:37:05.768Z,241.60
2023-05-12T00:38:05.796Z,239.02
2023-05-12T00:39:05.870Z,239.10
2023-05-12T00:40:05.942Z,239.89
2023-05-12T00:41:05.976Z,241.66
2023-05-12T00:42:06.022Z,240.59
2023-05-12T00:43:06.074Z,240.16
2023-05-12T00:44:06.153Z,241.29
2023-05-12T00:45:06.204Z,238.46
2023-05-12T00:46:06.346Z,240.21
2023-05-12T00:47:06.284Z,241.15
2023-05-12T00:48:06.380Z,241.57
2023-05-12T00:49:06.398Z,241.64
2023-05-12T00:50:06.500Z,241.37
2023-05-12T00:51:06.499Z,240.15
2023-05-12T00:52:06.564Z,241.64
2023-05-12T00:53:06.635Z,240.01
2023-05-12T00:54:06.686Z,239.01
2023-05-12T00:55:06.749Z,242.07
2023-05-12T00:56:06.777Z,241.63
2023-05-12T00:57:06.862Z,242.22
2023-05-12T00:58:06.897Z,240.88
2023-05-12T00:59:06.913Z,243.39
2023-05-12T01:00:07.019Z,241.49
2023-05-12T01:01:07.036Z,241.40
2023-05-12T01:02:07.197Z,244.08
2023-05-12T01:03:07.223Z,243.88
2023-05-12T01:04:07.338Z,244.50
2023-05-12T01:05:07.286Z,242.66
2023-05-12T01:06:07.294Z,242.30
2023-05-12T01:07:07.346Z,241.06
2023-05-12T01:08:07.405Z,243.53
2023-05-12T01:09:07.454Z,242.02
2023-05-12T01:10:07.509Z,244.56
2023-05-12T01:11:07.563Z,241.16
2023-05-12T01:12:07.602Z,243.42
2023-05-12T01:13:07.689Z,242.43
2023-05-12T01:14:07.716Z,243.08
2023-05-12T01:15:07.802Z,243.23
2023-05-12T01:16:07.824Z,243.24
2023-05-12T01:17:08.055Z,244.45
2023-05-12T01:18:07.976Z,245.77
2023-05-12T01:19:08.008Z,245.78
2023-05-12T01:20:08.047Z,245.28
2023-05-12T01:21:08.086Z,244.69
2023-05-12T01:22:08.157Z,245.09
2023-05-12T01:23:08.263Z,244.50
2023-05-12T01:24:08.275Z,244.32
2023-05-12T01:25:08.395Z,244.47
2023-05-12T01:26:08.384Z,243.88
2023-05-12T01:27:08.417Z,245.40
2023-05-12T01:28:08.511Z,243.70
2023-05-12T01:29:08.558Z,246.81
2023-05-12T01:30:08.598Z,244.90
2023-05-12T01:31:08.666Z,248.02
2023-05-12T01:32:08.739Z,245.76
2023-05-12T01:33:08.795Z,243.80
2023-05-12T01:34:08.849Z,245.07
2023-05-12T01:35:08.902Z,244.88
2023-05-12T01:36:08.941Z,243.28
2023-05-12T01:37:09.016Z,242.44
2023-05-12T01:38:09.088Z,244.43
2023-05-12T01:39:09.077Z,247.25
2023-05-12T01:40:09.163Z,245.02
2023-05-12T01:41:09.221Z,247.00
2023-05-12T01:42:09.253Z,246.04
2023-05-12T01:43:09.329Z,245.54
2023-05-12T01:44:09.357Z,244.81
2023-05-12T01:45:09.482Z,245.04
2023-05-12T01:46:09.572Z,245.07
2023-05-12T01:47:09.552Z,246.40
2023-05-12T01:48:09.586Z,246.95
2023-05-12T01:49:09.641Z,244.26
2023-05-12T01:50:09.684Z,246.16
2023-05-12T01:51:09.780Z,246.05
2023-05-12T01:52:09.809Z,247.15
2023-05-12T01:53:09.880Z,245.53
2023-05-12T01:54:09.919Z,246.27
2023-05-12T01:55:09.934Z,247.06
2023-05-12T01:56:10.023Z,245.47
2023-05-12T01:57:10.089Z,246.07
2023-05-12T01:58:10.107Z,247.02
2023-05-12T01:59:10.212Z,245.70
2023-05-12T02:00:10.232Z,248.38
2023-05-12T02:01:10.306Z,245.99
2023-05-12T02:02:10.389Z,245.91
2023-05-12T02:03:10.461Z,248.06
2023-05-12T02:04:10.543Z,248.43
2023-05-12T02:05:10.539Z,244.14
2023-05-12T02:06:10.601Z,246.31
2023-05-12T02:07:10.605Z,244.33
2023-05-12T02:08:10.720Z,246.88
2023-05-12T02:09:10.721Z,248.56
2023-05-12T02:10:10.793Z,247.35
2023-05-12T02:11:10.867Z,247.54
2023-05-12T02:12:10.903Z,245.27
2023-05-12T02:13:10.949Z,248.96
2023-05-12T02:14:11.015Z,245.78
2023-05-12T02:15:11.058Z,248.12
2023-05-12T02:16:11.139Z,248.68
2023-05-12T02:17:11.174Z,245.76
2023-05-12T02:18:11.294Z,246.59
2023-05-12T02:19:11.283Z,248.04
2023-05-12T02:20:11.320Z,247.22
2023-05-12T02:21:11.413Z,245.59
2023-05-12T02:22:11.481Z,248.01
2023-05-12T02:23:11.486Z,243.88
2023-05-12T02:24:13.625Z,247.52
2023-05-12T02:25:11.561Z,249.14
2023-05-12T02:26:11.551Z,247.51
2023-05-12T02:27:11.582Z,249.40
2023-05-12T02:28:11.525Z,247.30
2023-05-12T02:29:11.498Z,245.78
2023-05-12T02:30:11.540Z,247.00
2023-05-12T02:31:11.507Z,243.79
2023-05-12T02:32:11.546Z,247.76
2023-05-12T02:33:11.465Z,247.12
2023-05-12T02:34:11.468Z,248.09
2023-05-12T02:35:11.469Z,246.17
2023-05-12T02:36:11.461Z,245.76
2023-05-12T02:37:11.446Z,247.45
2023-05-12T02:38:11.471Z,243.61
2023-05-12T02:39:11.441Z,245.44
2023-05-12T02:40:11.436Z,248.66
2023-05-12T02:41:11.420Z,245.63
2023-05-12T02:42:11.448Z,246.70
2023-05-12T02:43:11.414Z,247.57
2023-05-12T02:44:11.401Z,245.99
2023-05-12T02:45:11.400Z,246.87
2023-05-12T02:46:11.434Z,246.15
2023-05-12T02:47:11.403Z,246.40
2023-05-12T02:48:11.407Z,246.33
2023-05-12T02:49:11.340Z,248.35
2023-05-12T02:50:11.414Z,244.54
2023-05-12T02:51:11.357Z,246.09
2023-05-12T02:52:11.350Z,248.49
2023-05-12T02:53:11.373Z,242.69
2023-05-12T02:54:11.340Z,246.85
2023-05-12T02:55:11.341Z,244.93
2023-05-12T02:56:11.362Z,247.21
2023-05-12T02:57:11.308Z,244.52
2023-05-12T02:58:11.343Z,244.62
2023-05-12T02:59:11.302Z,245.47
2023-05-12T03:00:11.378Z,245.95
2023-05-12T03:01:11.872Z,241.92
2023-05-12T03:02:11.609Z,246.78
2023-05-12T03:03:11.657Z,245.23
2023-05-12T03:04:11.612Z,245.51
2023-05-12T03:05:11.710Z,246.78
2023-05-12T03:06:11.774Z,245.88
2023-05-12T03:07:11.845Z,245.69
2023-05-12T03:08:11.861Z,242.92
2023-05-12T03:09:11.908Z,245.08
2023-05-12T03:10:11.979Z,243.12
2023-05-12T03:11:12.064Z,242.84
2023-05-12T03:12:12.112Z,245.31
2023-05-12T03:13:12.191Z,242.81
2023-05-12T03:14:12.225Z,243.02
2023-05-12T03:15:12.325Z,246.23
2023-05-12T03:16:12.397Z,245.04
2023-05-12T03:17:12.469Z,244.71
2023-05-12T03:18:12.544Z,247.33
2023-05-12T03:19:12.570Z,246.01
2023-05-12T03:20:12.643Z,242.92
2023-05-12T03:21:12.696Z,243.78
2023-05-12T03:22:12.741Z,245.78
2023-05-12T03:23:12.851Z,244.10
2023-05-12T03:24:12.868Z,245.35
2023-05-12T03:25:12.949Z,247.76
2023-05-12T03:26:12.974Z,246.16
2023-05-12T03:27:13.004Z,245.88
2023-05-12T03:28:13.114Z,247.25
2023-05-12T03:29:13.295Z,246.12
2023-05-12T03:30:13.249Z,245.72
2023-05-12T03:31:13.347Z,244.63
2023-05-12T03:32:13.432Z,246.81
2023-05-12T03:33:13.363Z,243.91
2023-05-12T03:34:13.471Z,242.56
2023-05-12T03:35:13.555Z,245.63
2023-05-12T03:36:13.582Z,248.87
2023-05-12T03:37:13.662Z,243.13
2023-05-12T03:38:13.708Z,244.44
2023-05-12T03:39:13.738Z,244.07
2023-05-12T03:40:13.807Z,246.17
2023-05-12T03:41:13.883Z,244.11
2023-05-12T03:42:13.939Z,246.03
2023-05-12T03:43:13.979Z,244.82
2023-05-12T03:44:14.207Z,244.17
2023-05-12T03:45:14.123Z,245.22
2023-05-12T03:46:14.246Z,245.84
2023-05-12T03:47:14.296Z,243.93
2023-05-12T03:48:14.308Z,244.69
2023-05-12T03:49:14.311Z,243.83
2023-05-12T03:50:14.412Z,245.15
2023-05-12T03:51:14.466Z,243.20
2023-05-12T03:52:14.542Z,244.72
2023-05-12T03:53:14.596Z,245.79
2023-05-12T03:54:14.649Z,244.61
2023-05-12T03:55:14.725Z,244.22
2023-05-12T03:56:14.772Z,247.08
2023-05-12T03:57:14.821Z,247.56
2023-05-12T03:58:14.930Z,242.81
2023-05-12T03:59:14.928Z,244.53
2023-05-12T04:00:15.024Z,243.62
2023-05-12T04:01:15.092Z,244.73
2023-05-12T04:02:15.142Z,245.40
2023-05-12T04:03:15.294Z,245.97
2023-05-12T04:04:15.434Z,245.05
2023-05-12T04:05:15.298Z,243.44
2023-05-12T04:06:15.366Z,239.76
2023-05-12T04:07:15.447Z,238.13
2023-05-12T04:08:15.491Z,232.69
2023-05-12T04:09:15.559Z,231.36
2023-05-12T04:10:15.598Z,228.08
2023-05-12T04:11:15.635Z,224.14
2023-05-12T04:12:15.751Z,223.30
2023-05-12T04:13:15.747Z,219.96
2023-05-12T04:14:15.862Z,216.50
2023-05-12T04:15:15.900Z,215.00
2023-05-12T04:16:15.996Z,212.46
2023-05-12T04:17:16.025Z,207.91
2023-05-12T04:18:16.071Z,206.18
2023-05-12T04:19:16.127Z,201.96
2023-05-12T04:20:16.199Z,201.56
2023-05-12T04:21:16.253Z,199.94
2023-05-12T04:22:16.290Z,194.44
2023-05-12T04:23:16.343Z,192.23
2023-05-12T04:24:16.439Z,191.94
2023-05-12T04:25:16.530Z,186.62
2023-05-12T04:26:16.528Z,187.60
2023-05-12T04:27:16.641Z,186.50
2023-05-12T04:28:16.667Z,182.21
2023-05-12T04:29:16.709Z,184.29
2023-05-12T04:30:16.791Z,178.30
2023-05-12T04:31:16.824Z,179.67
2023-05-12T04:32:16.992Z,182.61
2023-05-12T04:33:16.956Z,178.09
2023-05-12T04:34:16.992Z,175.92
2023-05-12T04:35:17.089Z,178.15
2023-05-12T04:36:17.116Z,176.02
2023-05-12T04:37:17.152Z,175.42
2023-05-12T04:38:17.224Z,174.10
2023-05-12T04:39:17.306Z,177.62
2023-05-12T04:40:17.363Z,174.41
2023-05-12T04:41:17.428Z,174.23
2023-05-12T04:42:17.419Z,174.86
2023-05-12T04:44:17.468Z,177.73
2023-05-12T04:45:17.626Z,177.74
2023-05-12T04:46:17.566Z,173.47
2023-05-12T04:47:17.499Z,174.33
2023-05-12T04:48:17.463Z,175.63
2023-05-12T04:49:17.463Z,181.46
2023-05-12T04:50:17.478Z,176.10
2023-05-12T04:51:17.494Z,174.67
2023-05-12T04:52:17.454Z,174.36
2023-05-12T04:53:17.457Z,171.89
2023-05-12T04:54:17.456Z,172.20
2023-05-12T04:55:17.467Z,176.50
2023-05-12T04:56:17.422Z,175.58
2023-05-12T04:57:17.439Z,172.50
2023-05-12T04:58:17.428Z,175.75
2023-05-12T04:59:17.417Z,174.31
2023-05-12T05:00:17.394Z,175.75
2023-05-12T05:01:17.444Z,174.12
2023-05-12T05:02:17.410Z,175.91
2023-05-12T05:03:17.536Z,175.95
2023-05-12T05:04:17.378Z,177.76
2023-05-12T05:05:17.383Z,174.57
2023-05-12T05:06:17.329Z,173.88
2023-05-12T05:07:17.345Z,173.88
2023-05-12T05:08:17.352Z,173.06
2023-05-12T05:09:17.310Z,170.60
2023-05-12T05:10:17.298Z,174.96
2023-05-12T05:11:17.287Z,173.51
2023-05-12T05:12:17.291Z,174.46
2023-05-12T05:13:17.302Z,174.89
2023-05-12T05:14:17.312Z,173.37
2023-05-12T05:15:17.500Z,173.17
2023-05-12T05:16:17.334Z,172.32
2023-05-12T05:17:17.294Z,173.45
2023-05-12T05:18:17.245Z,173.30
2023-05-12T05:19:23.356Z,172.77
2023-05-12T05:20:19.711Z,172.98
2023-05-12T05:21:17.461Z,173.57
2023-05-12T05:22:17.515Z,173.42
2023-05-12T05:23:17.520Z,174.45
2023-05-12T05:24:17.556Z,173.39
2023-05-12T05:25:17.823Z,174.90
2023-05-12T05:26:17.678Z,174.19
2023-05-12T05:27:17.733Z,175.66
2023-05-12T05:28:17.888Z,171.61
2023-05-12T05:29:17.869Z,173.68
2023-05-12T05:30:17.915Z,174.13
2023-05-12T05:31:18.096Z,173.38
2023-05-12T05:32:18.020Z,172.19
2023-05-12T05:33:18.156Z,183.73
2023-05-12T05:34:18.154Z,192.54
2023-05-12T05:35:18.310Z,198.87
2023-05-12T05:36:18.268Z,201.75
2023-05-12T05:37:18.306Z,200.94
2023-05-12T05:38:20.117Z,201.62
2023-05-12T05:39:18.374Z,205.41
2023-05-12T05:40:18.448Z,205.65
2023-05-12T05:41:18.476Z,202.92
2023-05-12T05:42:18.473Z,205.92
2023-05-12T05:43:18.628Z,208.73
2023-05-12T05:44:18.583Z,212.50
2023-05-12T05:45:19.023Z,215.90
2023-05-12T05:46:18.728Z,214.71
2023-05-12T05:47:18.693Z,215.95
2023-05-12T05:48:18.769Z,220.32
2023-05-12T05:49:18.745Z,227.90
2023-05-12T05:50:18.798Z,229.05
2023-05-12T05:51:18.872Z,235.38
2023-05-12T05:52:18.847Z,239.27
2023-05-12T05:53:19.522Z,242.09
2023-05-12T05:54:18.873Z,245.60
2023-05-12T05:55:19.309Z,247.19
2023-05-12T05:56:19.090Z,248.30
2023-05-12T05:57:18.921Z,248.45
2023-05-12T05:58:19.053Z,249.54
2023-05-12T05:59:18.946Z,250.00
2023-05-12T06:00:19.044Z,248.42
2023-05-12T06:01:18.902Z,250.00
2023-05-12T06:02:18.912Z,247.06
2023-05-12T06:03:19.019Z,243.47
2023-05-12T06:04:19.135Z,249.90
2023-05-12T06:05:19.008Z,248.74
2023-05-12T06:06:18.984Z,248.16
2023-05-12T06:07:20.533Z,245.96
2023-05-12T06:08:19.130Z,250.00
2023-05-12T06:09:19.161Z,247.15
2023-05-12T06:10:19.389Z,248.65
2023-05-12T06:11:19.315Z,248.66
2023-05-12T06:12:21.063Z,250.00
2023-05-12T06:13:19.393Z,248.55
2023-05-12T06:14:19.437Z,248.71
2023-05-12T06:15:19.591Z,248.58
2023-05-12T06:16:19.767Z,248.22
2023-05-12T06:17:19.699Z,248.49
2023-05-12T06:18:19.661Z,249.75
2023-05-12T06:19:19.713Z,248.65
2023-05-12T06:20:19.758Z,247.57
2023-05-12T06:21:19.821Z,248.64
2023-05-12T06:22:19.822Z,248.73
2023-05-12T06:23:19.876Z,248.88
2023-05-12T06:24:19.874Z,248.13
2023-05-12T06:25:20.182Z,249.09
2023-05-12T06:26:20.046Z,248.86
2023-05-12T06:27:20.011Z,247.88
2023-05-12T06:28:20.063Z,248.30
2023-05-12T06:29:20.075Z,248.98
2023-05-12T06:30:20.133Z,248.58
2023-05-12T06:31:20.264Z,247.13
2023-05-12T06:32:20.228Z,247.97
2023-05-12T06:33:20.396Z,249.19
2023-05-12T06:34:20.526Z,246.85
2023-05-12T06:35:20.619Z,247.58
2023-05-12T06:36:20.339Z,249.39
2023-05-12T06:37:20.426Z,249.96
2023-05-12T06:38:20.511Z,249.47
2023-05-12T06:39:20.528Z,247.07
2023-05-12T06:40:20.552Z,247.94
2023-05-12T06:41:20.659Z,248.16
2023-05-12T06:42:20.758Z,246.29
2023-05-12T06:43:21.095Z,244.69
2023-05-12T06:44:20.842Z,240.12
2023-05-12T06:45:21.334Z,236.43
2023-05-12T06:46:21.022Z,238.03
2023-05-12T06:47:21.032Z,237.50
2023-05-12T06:48:21.070Z,240.24
2023-05-12T06:49:21.208Z,239.68
2023-05-12T06:50:21.233Z,238.52
2023-05-12T06:51:21.599Z,238.92
2023-05-12T06:52:21.593Z,238.17
2023-05-12T06:53:23.999Z,240.95
2023-05-12T06:54:21.400Z,240.99
2023-05-12T06:55:21.720Z,239.46
2023-05-12T06:56:21.397Z,238.50
2023-05-12T06:57:21.376Z,238.87
2023-05-12T06:58:21.375Z,237.99
2023-05-12T06:59:21.493Z,244.00
2023-05-12T07:00:21.383Z,249.41
2023-05-12T07:01:21.363Z,250.00
2023-05-12T07:02:21.357Z,249.61
2023-05-12T07:03:21.320Z,248.70
2023-05-12T07:04:21.319Z,247.59
2023-05-12T07:05:21.588Z,245.49
2023-05-12T07:06:21.289Z,248.13
2023-05-12T07:07:22.082Z,248.68
2023-05-12T07:08:22.544Z,248.81
2023-05-12T07:09:21.288Z,248.77
2023-05-12T07:10:21.253Z,247.74
2023-05-12T07:11:21.322Z,247.42
2023-05-12T07:12:21.235Z,243.43
2023-05-12T07:13:21.216Z,244.08
2023-05-12T07:14:21.241Z,243.66
2023-05-12T07:15:21.486Z,244.09
2023-05-12T07:16:21.252Z,242.14
2023-05-12T07:17:21.304Z,239.95
2023-05-12T07:18:21.264Z,243.56
2023-05-12T07:19:21.172Z,246.67
2023-05-12T07:20:21.226Z,249.95
2023-05-12T07:21:21.227Z,246.90
2023-05-12T07:22:21.157Z,246.08
2023-05-12T07:23:21.153Z,243.79
2023-05-12T07:24:21.181Z,246.48
2023-05-12T07:25:21.340Z,245.17
2023-05-12T07:26:21.592Z,243.04
2023-05-12T07:27:21.169Z,246.41
2023-05-12T07:28:21.119Z,245.98
2023-05-12T07:29:21.177Z,244.15
2023-05-12T07:30:21.124Z,247.34
2023-05-12T07:31:22.691Z,236.18
2023-05-12T07:32:21.109Z,238.23
2023-05-12T07:33:21.142Z,237.54
2023-05-12T07:34:21.202Z,224.17
2023-05-12T07:35:21.443Z,205.90
2023-05-12T07:36:22.064Z,197.69
2023-05-12T07:37:21.334Z,191.05
2023-05-12T07:38:21.338Z,188.32
2023-05-12T07:39:21.415Z,178.28
2023-05-12T07:40:21.476Z,169.24
2023-05-12T07:41:21.548Z,166.51
2023-05-12T07:42:21.605Z,152.80
2023-05-12T07:43:21.660Z,148.47
2023-05-12T07:44:21.606Z,137.27
2023-05-12T07:45:21.733Z,132.34
2023-05-12T07:46:21.734Z,133.80
2023-05-12T07:47:21.611Z,127.13
2023-05-12T07:48:21.613Z,117.43
2023-05-12T07:49:21.609Z,109.96
2023-05-12T07:50:21.617Z,103.78
2023-05-12T07:51:21.618Z,95.83
2023-05-12T07:52:21.677Z,96.57
2023-05-12T07:53:21.693Z,87.95
2023-05-12T07:54:21.694Z,83.15
2023-05-12T07:55:21.904Z,75.40
2023-05-12T07:56:21.728Z,72.80
2023-05-12T07:57:21.772Z,70.19
2023-05-12T07:58:21.770Z,64.22
2023-05-12T07:59:21.809Z,60.79
2023-05-12T08:00:21.822Z,52.91
2023-05-12T08:01:21.870Z,47.29
2023-05-12T08:02:21.898Z,45.12
2023-05-12T08:03:22.117Z,44.63
2023-05-12T08:04:22.005Z,48.21
2023-05-12T08:05:22.177Z,42.11
2023-05-12T08:06:22.000Z,39.39
2023-05-12T08:07:22.072Z,33.80
2023-05-12T08:08:22.150Z,37.75
2023-05-12T08:09:22.123Z,36.30
2023-05-12T08:10:22.124Z,36.00
2023-05-12T08:11:22.162Z,36.88
2023-05-12T08:12:22.206Z,36.38
2023-05-12T08:13:22.258Z,43.16
2023-05-12T08:14:22.296Z,47.56
2023-05-12T08:15:22.568Z,44.79
2023-05-12T08:16:22.390Z,47.77
2023-05-12T08:17:22.431Z,47.59
2023-05-12T08:18:22.466Z,45.97
2023-05-12T08:19:22.483Z,44.42
2023-05-12T08:20:22.549Z,46.90
2023-05-12T08:21:22.559Z,39.58
2023-05-12T08:22:22.545Z,42.05
2023-05-12T08:23:22.611Z,37.24
2023-05-12T08:24:22.633Z,33.06
2023-05-12T08:25:22.813Z,38.32
2023-05-12T08:26:23.154Z,40.72
2023-05-12T08:27:22.760Z,34.28
2023-05-12T08:28:22.764Z,32.12
2023-05-12T08:29:22.817Z,26.56
2023-05-12T08:30:22.916Z,25.36
2023-05-12T08:31:22.950Z,24.24
2023-05-12T08:32:22.984Z,25.13
2023-05-12T08:33:23.032Z,25.29
2023-05-12T08:34:23.048Z,24.70
2023-05-12T08:35:23.193Z,24.87
2023-05-12T08:36:23.161Z,25.00
2023-05-12T08:37:23.233Z,24.74
2023-05-12T08:38:23.293Z,29.99
2023-05-12T08:39:23.354Z,26.71
2023-05-12T08:40:23.479Z,25.00
2023-05-12T08:41:23.490Z,26.18
2023-05-12T08:42:23.545Z,32.49
2023-05-12T08:43:23.560Z,28.52
2023-05-12T08:44:23.624Z,28.64
2023-05-12T08:45:23.655Z,21.68
2023-05-12T08:46:23.704Z,35.03
2023-05-12T08:47:24.138Z,36.74
2023-05-12T08:48:23.731Z,51.12
2023-05-12T08:49:23.757Z,58.35
2023-05-12T08:50:23.779Z,65.69
2023-05-12T08:51:23.922Z,67.19
2023-05-12T08:52:23.919Z,64.07
2023-05-12T08:53:23.994Z,65.35
2023-05-12T08:54:24.035Z,65.30
2023-05-12T08:55:27.456Z,62.81
2023-05-12T08:57:24.058Z,62.77
2023-05-12T08:58:30.574Z,57.95
2023-05-12T08:59:25.070Z,62.91
2023-05-12T09:00:24.167Z,62.97
2023-05-12T09:01:24.115Z,64.20
2023-05-12T09:02:24.848Z,67.57
2023-05-12T09:03:24.020Z,63.28
2023-05-12T09:04:24.039Z,64.36
2023-05-12T09:05:24.135Z,58.51
2023-05-12T09:06:23.988Z,64.78
2023-05-12T09:07:23.988Z,59.72
2023-05-12T09:08:23.986Z,62.35
2023-05-12T09:09:24.094Z,58.50
2023-05-12T09:11:25.651Z,62.34
2023-05-12T09:12:24.082Z,62.39
2023-05-12T09:13:24.161Z,63.09
2023-05-12T09:14:25.053Z,63.02
2023-05-12T09:15:24.063Z,64.80
2023-05-12T09:16:24.150Z,68.32
2023-05-12T09:17:24.206Z,71.44
2023-05-12T09:18:24.063Z,82.97
2023-05-12T09:19:24.055Z,91.42
2023-05-12T09:20:31.356Z,92.68
2023-05-12T09:21:25.008Z,92.86
2023-05-12T09:22:23.996Z,93.73
2023-05-12T09:23:24.006Z,93.20
2023-05-12T09:24:23.983Z,87.58
2023-05-12T09:25:24.637Z,88.65
2023-05-12T09:26:24.018Z,92.32
2023-05-12T09:27:23.976Z,85.73
2023-05-12T09:28:23.989Z,82.66
2023-05-12T09:29:31.742Z,79.63
2023-05-12T09:30:24.929Z,78.18
2023-05-12T09:31:23.962Z,63.51
2023-05-12T09:32:23.981Z,53.38
2023-05-12T09:33:23.964Z,57.15
2023-05-12T09:34:23.924Z,56.66
2023-05-12T09:35:23.988Z,54.14
2023-05-12T09:36:23.913Z,55.46
2023-05-12T09:37:23.892Z,55.06
2023-05-12T09:38:23.872Z,58.66
2023-05-12T09:39:23.929Z,62.00
2023-05-12T09:40:23.860Z,60.11
2023-05-12T09:41:23.867Z,63.04
2023-05-12T09:42:23.838Z,57.08
2023-05-12T09:43:23.904Z,55.43
2023-05-12T09:44:23.958Z,42.41
2023-05-12T09:45:23.996Z,37.72
2023-05-12T09:46:24.073Z,34.40
2023-05-12T09:47:24.138Z,34.26
2023-05-12T09:48:26.836Z,28.28
2023-05-12T09:49:24.152Z,25.00
2023-05-12T09:50:24.126Z,28.93
2023-05-12T09:51:24.136Z,28.82
2023-05-12T09:52:24.152Z,19.27
2023-05-12T09:53:24.291Z,25.37
2023-05-12T09:54:24.134Z,33.46
2023-05-12T09:55:24.116Z,28.40
2023-05-12T09:56:24.120Z,32.10
2023-05-12T09:57:24.078Z,24.54
2023-05-12T09:58:24.105Z,30.93
2023-05-12T09:59:24.118Z,33.99
2023-05-12T10:00:36.972Z,39.35
2023-05-12T10:01:25.234Z,39.47
2023-05-12T10:02:24.286Z,38.43
2023-05-12T10:03:24.072Z,34.50
2023-05-12T10:04:24.089Z,27.98
2023-05-12T10:05:24.025Z,22.85
2023-05-12T10:06:24.034Z,26.02
2023-05-12T10:07:24.008Z,30.09
2023-05-12T10:08:23.990Z,40.87
2023-05-12T10:09:24.028Z,48.94
2023-05-12T10:10:24.175Z,46.56
2023-05-12T10:11:24.014Z,54.57
2023-05-12T10:12:23.971Z,52.23
2023-05-12T10:13:23.975Z,52.78
2023-05-12T10:14:23.940Z,47.32
2023-05-12T10:15:23.967Z,43.75
2023-05-12T10:16:24.005Z,37.37
2023-05-12T10:17:23.980Z,35.15
2023-05-12T10:18:23.998Z,36.77
2023-05-12T10:19:23.913Z,43.65
2023-05-12T10:20:23.924Z,50.52
2023-05-12T10:21:23.909Z,61.86
2023-05-12T10:22:23.901Z,64.43
2023-05-12T10:23:23.878Z,72.09
2023-05-12T10:24:23.889Z,84.17
2023-05-12T10:25:24.197Z,82.76
2023-05-12T10:26:23.918Z,61.49
2023-05-12T10:27:24.083Z,70.46
2023-05-12T10:28:24.064Z,72.88
2023-05-12T10:29:24.127Z,75.80
2023-05-12T10:30:24.157Z,88.07
2023-05-12T10:31:24.284Z,92.71
2023-05-12T10:32:24.289Z,94.71
2023-05-12T10:33:24.294Z,92.41
2023-05-12T10:34:24.321Z,84.80
2023-05-12T10:35:24.407Z,87.43
2023-05-12T10:36:24.429Z,94.08
2023-05-12T10:37:24.522Z,92.00
2023-05-12T10:38:24.549Z,95.30
2023-05-12T10:39:24.605Z,96.81
2023-05-12T10:40:24.668Z,99.06
2023-05-12T10:41:24.708Z,102.42
2023-05-12T10:42:24.792Z,105.01
2023-05-12T10:43:24.919Z,110.35
2023-05-12T10:44:24.903Z,105.86
2023-05-12T10:45:25.159Z,114.91
2023-05-12T10:46:25.160Z,112.98
2023-05-12T10:47:25.127Z,112.90
2023-05-12T10:48:25.180Z,108.39
2023-05-12T10:49:25.193Z,104.45
2023-05-12T10:50:25.254Z,112.21
2023-05-12T10:51:25.335Z,107.86
2023-05-12T10:52:25.368Z,101.75
2023-05-12T10:53:28.645Z,107.53
2023-05-12T10:54:26.437Z,104.22
2023-05-12T10:55:25.771Z,105.68
2023-05-12T10:56:25.722Z,108.73
2023-05-12T10:57:25.528Z,104.36
2023-05-12T10:58:25.923Z,104.47
2023-05-12T10:59:25.933Z,98.65
2023-05-12T11:00:25.887Z,94.80
2023-05-12T11:01:26.224Z,95.34
2023-05-12T11:02:26.255Z,96.66
2023-05-12T11:03:26.164Z,93.18
2023-05-12T11:04:25.486Z,92.69
2023-05-12T11:05:25.702Z,92.86
2023-05-12T11:06:25.750Z,88.43
2023-05-12T11:07:26.300Z,91.70
2023-05-12T11:08:26.698Z,84.92
2023-05-12T11:09:26.897Z,77.26
2023-05-12T11:10:26.619Z,83.67
2023-05-12T11:11:25.831Z,83.15
2023-05-12T11:12:25.779Z,96.22
2023-05-12T11:13:25.846Z,87.01
2023-05-12T11:14:25.928Z,81.05
2023-05-12T11:15:25.963Z,81.07
2023-05-12T11:16:26.043Z,80.22
2023-05-12T11:17:26.219Z,72.25
2023-05-12T11:18:26.108Z,79.21
2023-05-12T11:19:26.141Z,79.90
2023-05-12T11:20:27.581Z,82.47
2023-05-12T11:21:26.167Z,81.16
2023-05-12T11:22:26.146Z,76.18
2023-05-12T11:23:26.124Z,84.87
2023-05-12T11:24:26.146Z,73.79
2023-05-12T11:25:26.204Z,73.56
2023-05-12T11:26:26.097Z,76.27
2023-05-12T11:27:26.087Z,79.98
2023-05-12T11:28:26.109Z,82.11
2023-05-12T11:29:26.091Z,76.39
2023-05-12T11:30:26.097Z,77.55
2023-05-12T11:31:26.244Z,78.66
2023-05-12T11:32:26.207Z,80.44
2023-05-12T11:33:26.053Z,79.48
2023-05-12T11:34:26.081Z,77.26
2023-05-12T11:35:26.100Z,70.09
2023-05-12T11:36:26.191Z,79.21
2023-05-12T11:37:26.020Z,73.22
2023-05-12T11:38:26.022Z,87.22
2023-05-12T11:39:26.035Z,82.49
2023-05-12T11:40:25.991Z,81.56
2023-05-12T11:41:25.996Z,83.78
2023-05-12T11:42:26.081Z,90.84
2023-05-12T11:43:25.995Z,96.49
2023-05-12T11:44:26.000Z,96.56
2023-05-12T11:45:26.004Z,91.63
2023-05-12T11:46:26.000Z,88.00
2023-05-12T11:47:26.030Z,91.39
2023-05-12T11:48:25.944Z,91.56
2023-05-12T11:49:25.945Z,88.40
2023-05-12T11:50:26.032Z,84.29
2023-05-12T11:51:25.969Z,76.24
2023-05-12T11:52:25.912Z,74.34
2023-05-12T11:53:27.583Z,74.72
2023-05-12T11:54:25.963Z,71.47
2023-05-12T11:55:26.019Z,69.80
2023-05-12T11:56:25.953Z,80.88
2023-05-12T11:57:25.922Z,78.92
2023-05-12T11:58:25.890Z,71.69
2023-05-12T11:59:25.878Z,70.30
2023-05-12T12:00:25.871Z,65.18
2023-05-12T12:01:25.900Z,63.83
2023-05-12T12:02:25.927Z,64.90
2023-05-12T12:03:25.977Z,75.70
2023-05-12T12:04:25.863Z,78.02
2023-05-12T12:05:25.873Z,81.84
2023-05-12T12:06:25.803Z,80.76
2023-05-12T12:07:25.807Z,90.74
2023-05-12T12:08:25.824Z,104.47
2023-05-12T12:09:25.780Z,107.56
2023-05-12T12:10:25.786Z,104.54
2023-05-12T12:11:25.804Z,107.80
2023-05-12T12:12:25.783Z,108.33
2023-05-12T12:13:25.784Z,105.65
2023-05-12T12:14:25.745Z,112.06
2023-05-12T12:15:25.785Z,113.49
2023-05-12T12:16:25.843Z,116.08
2023-05-12T12:17:25.804Z,118.99
2023-05-12T12:18:25.783Z,124.73
2023-05-12T12:19:25.762Z,128.38
2023-05-12T12:20:25.770Z,133.58
2023-05-12T12:21:25.720Z,136.74
2023-05-12T12:22:25.797Z,139.41
2023-05-12T12:23:25.826Z,139.75
2023-05-12T12:24:25.891Z,141.05
2023-05-12T12:25:25.945Z,140.56
2023-05-12T12:26:25.996Z,146.41
2023-05-12T12:27:26.062Z,152.39
2023-05-12T12:28:26.115Z,154.37
2023-05-12T12:29:26.262Z,156.22
2023-05-12T12:30:26.238Z,153.57
2023-05-12T12:31:26.360Z,149.50
2023-05-12T12:32:26.405Z,153.91
2023-05-12T12:33:26.379Z,153.52
2023-05-12T12:34:26.459Z,158.21
2023-05-12T12:35:26.502Z,158.06
2023-05-12T12:36:26.560Z,160.16
2023-05-12T12:37:26.610Z,158.78
2023-05-12T12:38:26.675Z,156.12